Austin, Texas
Traffic Map
Current Weather Conditions
Austin, Texas
Overcast Light Rain
Overcast
48°
Feels Like: 48°
Wind Chill: 48° Ceiling: 1100
Heat Index: 48° Visibility: 8mi
Dew Point: 45° Wind: 3mph
Humidity: 89% Direction: ° ()
Pressure: 30.21in Gusts: 0mph
Raw Report DataKATT 161551Z AUTO VRB03KT 8SM -RA OVC011 09/07 A3021 RMK AO2 SLP235 P0001 T00890072
Traffic Incident Summary
Active as of:
Severity:
Category:
InformationThere was an issue retrieving the traffic information for this location. Please try a different location or try again shortly.
Advertisements